Time;durP1;ratioP1;P1;durP2;ratioP2;P2;SDS_P1;SDS_P2;PMS_P1;PMS_P2;Temp;Humidity;BMP_temperature;BMP_pressure;BME280_temperature;BME280_humidity;BME280_pressure;Samples;Min_cycle;Max_cycle;Signal;HPM_P1;HPM_P2
2023/03/04 00:02:18;;;;;;;;;;;6.00;99.90;;;;;;5073132;28;19920;-74
2023/03/04 00:04:43;;;;;;;;;;;6.00;99.90;;;;;;5071693;28;20005;-74
2023/03/04 00:07:09;;;;;;;;;;;6.00;99.90;;;;;;5054599;28;19936;-74
2023/03/04 00:09:34;;;;;;;;;;;6.00;99.90;;;;;;5069948;28;20360;-74
2023/03/04 00:12:00;;;;;;;;;;;6.00;99.90;;;;;;5072389;28;20448;-75
2023/03/04 00:14:26;;;;;;;;;;;6.00;99.90;;;;;;5072247;28;20294;-74
2023/03/04 00:16:51;;;;;;;;;;;6.00;99.90;;;;;;5071830;28;19921;-73
2023/03/04 00:19:17;;;;;;;;;;;5.90;99.90;;;;;;5053647;28;19920;-73
2023/03/04 00:21:42;;;;;;;;;;;6.00;99.90;;;;;;5072645;28;19982;-73
2023/03/04 00:24:08;;;;;;;;;;;6.00;99.90;;;;;;5071211;28;19932;-74
2023/03/04 00:26:33;;;;;;;;;;;5.90;99.90;;;;;;5071830;28;19920;-74
2023/03/04 00:28:59;;;;;;;;;;;5.90;99.90;;;;;;5053857;28;20027;-74
2023/03/04 00:31:24;;;;;;;;;;;5.90;99.90;;;;;;5054556;28;19935;-74
2023/03/04 00:33:50;;;;;;;;;;;5.90;99.90;;;;;;5071616;28;20610;-73
2023/03/04 00:36:15;;;;;;;;;;;5.90;99.90;;;;;;5072630;28;19928;-74
2023/03/04 00:38:41;;;;;;;;;;;5.90;99.90;;;;;;5071143;28;19924;-74
2023/03/04 00:41:07;;;;;;;;;;;5.90;99.90;;;;;;5071722;28;19990;-73
2023/03/04 00:43:32;;;;;;;;;;;5.90;99.90;;;;;;5071399;28;20501;-73
2023/03/04 00:45:58;;;;;;;;;;;5.90;99.90;;;;;;5071917;28;19927;-74
2023/03/04 00:48:24;;;;;;;;;;;5.90;99.90;;;;;;5051972;28;19921;-73
2023/03/04 00:50:52;;;;;;;;;;;5.90;99.90;;;;;;5071478;28;19927;-72
2023/03/04 00:53:18;;;;;;;;;;;5.90;99.90;;;;;;5070054;28;19959;-73
2023/03/04 00:55:43;;;;;;;;;;;5.90;99.90;;;;;;5072114;28;19924;-74
2023/03/04 00:58:09;;;;;;;;;;;5.90;99.90;;;;;;5070876;28;19927;-73
2023/03/04 01:00:34;;;;;;;;;;;5.90;99.90;;;;;;5053151;28;20297;-73
2023/03/04 01:03:00;;;;;;;;;;;5.90;99.90;;;;;;5053607;28;19920;-73
2023/03/04 01:05:25;;;;;;;;;;;5.90;99.90;;;;;;5071224;28;19927;-73
2023/03/04 01:07:51;;;;;;;;;;;5.90;99.90;;;;;;5076643;28;19928;-73
2023/03/04 01:10:16;;;;;;;;;;;5.90;99.90;;;;;;5075317;28;19928;-73
2023/03/04 01:12:42;;;;;;;;;;;5.90;99.90;;;;;;5078773;28;20027;-73
2023/03/04 01:15:08;;;;;;;;;;;5.90;99.90;;;;;;5053234;28;19924;-73
2023/03/04 01:17:34;;;;;;;;;;;5.90;99.90;;;;;;5053325;28;19928;-73
2023/03/04 01:19:59;;;;;;;;;;;5.90;99.90;;;;;;5052311;28;19924;-73
2023/03/04 01:22:25;;;;;;;;;;;5.90;99.90;;;;;;5052117;28;19920;-73
2023/03/04 01:24:51;;;;;;;;;;;5.90;99.90;;;;;;5070905;28;19920;-73
2023/03/04 01:27:16;;;;;;;;;;;5.90;99.90;;;;;;5069770;28;20334;-73
2023/03/04 01:29:42;;;;;;;;;;;5.90;99.90;;;;;;5071075;28;19952;-73
2023/03/04 01:32:07;;;;;;;;;;;5.80;99.90;;;;;;5069665;28;19920;-73
2023/03/04 01:34:33;;;;;;;;;;;5.80;99.90;;;;;;5070790;28;19976;-73
2023/03/04 01:36:58;;;;;;;;;;;5.80;99.90;;;;;;5070911;28;19935;-73
2023/03/04 01:39:24;;;;;;;;;;;5.80;99.90;;;;;;5068982;28;19925;-74
2023/03/04 01:41:50;;;;;;;;;;;5.80;99.90;;;;;;5070787;28;19958;-74
2023/03/04 01:44:15;;;;;;;;;;;5.80;99.90;;;;;;5051694;28;19923;-74
2023/03/04 01:46:43;;;;;;;;;;;5.80;99.90;;;;;;5067673;28;20023;-74
2023/03/04 01:49:10;;;;;;;;;;;5.80;99.90;;;;;;5070141;28;19924;-74
2023/03/04 01:51:36;;;;;;;;;;;5.80;99.90;;;;;;5055063;28;19923;-74
2023/03/04 01:54:02;;;;;;;;;;;5.80;99.90;;;;;;5074082;28;19916;-74
2023/03/04 01:56:29;;;;;;;;;;;5.80;99.90;;;;;;5067612;28;20311;-74
2023/03/04 01:59:14;;;;;;;;;;;5.80;99.90;;;;;;5070797;28;19924;-74
2023/03/04 02:01:41;;;;;;;;;;;5.80;99.90;;;;;;5067896;28;20279;-74
2023/03/04 02:04:08;;;;;;;;;;;5.80;99.90;;;;;;5068785;28;19928;-74
2023/03/04 02:06:37;;;;;;;;;;;5.80;99.90;;;;;;5070340;28;19977;-74
2023/03/04 02:09:02;;;;;;;;;;;5.80;99.90;;;;;;5053029;28;20378;-74
2023/03/04 02:11:28;;;;;;;;;;;5.80;99.90;;;;;;5070210;28;19968;-74
2023/03/04 02:13:54;;;;;;;;;;;5.80;99.90;;;;;;5070336;28;19917;-74
2023/03/04 02:16:19;;;;;;;;;;;5.80;99.90;;;;;;5070023;28;20299;-74
2023/03/04 02:18:45;;;;;;;;;;;5.80;99.90;;;;;;5052081;28;19921;-74
2023/03/04 02:21:14;;;;;;;;;;;5.80;99.90;;;;;;5070363;28;19928;-74
2023/03/04 02:23:44;;;;;;;;;;;5.80;99.90;;;;;;5052003;28;19928;-74
2023/03/04 02:26:26;;;;;;;;;;;5.80;99.90;;;;;;5069392;28;19920;-74
2023/03/04 02:28:53;;;;;;;;;;;5.80;99.90;;;;;;5068158;28;19935;-74
2023/03/04 02:31:27;;;;;;;;;;;5.80;99.90;;;;;;5051454;28;20032;-75
2023/03/04 02:33:55;;;;;;;;;;;5.80;99.90;;;;;;5070727;28;19929;-74
2023/03/04 02:36:21;;;;;;;;;;;5.80;99.90;;;;;;5057433;28;19920;-74
2023/03/04 02:38:47;;;;;;;;;;;5.80;99.90;;;;;;5076049;28;19915;-73
2023/03/04 02:41:15;;;;;;;;;;;5.80;99.90;;;;;;5064682;28;19924;-75
2023/03/04 02:43:40;;;;;;;;;;;5.80;99.90;;;;;;5050281;28;19920;-75
2023/03/04 02:46:09;;;;;;;;;;;5.80;99.90;;;;;;5051662;28;19926;-74
2023/03/04 02:48:35;;;;;;;;;;;5.80;99.90;;;;;;5069787;28;20003;-74
2023/03/04 02:51:00;;;;;;;;;;;5.80;99.90;;;;;;5069461;28;19999;-74
2023/03/04 02:53:27;;;;;;;;;;;5.80;99.90;;;;;;5053120;28;20236;-73
2023/03/04 02:55:53;;;;;;;;;;;5.80;99.90;;;;;;5073715;28;20012;-74
2023/03/04 02:58:23;;;;;;;;;;;5.80;99.90;;;;;;5071540;28;20318;-74
2023/03/04 03:00:48;;;;;;;;;;;5.80;99.90;;;;;;5067139;28;19921;-74
2023/03/04 03:03:14;;;;;;;;;;;5.80;99.90;;;;;;5069463;28;20007;-74
2023/03/04 03:05:39;;;;;;;;;;;5.80;99.90;;;;;;5068880;28;19935;-74
2023/03/04 03:08:05;;;;;;;;;;;5.80;99.90;;;;;;5070064;28;19928;-74
2023/03/04 03:10:31;;;;;;;;;;;5.80;99.90;;;;;;5069414;28;20283;-74
2023/03/04 03:12:56;;;;;;;;;;;5.80;99.90;;;;;;5051127;28;19969;-74
2023/03/04 03:15:22;;;;;;;;;;;5.80;99.90;;;;;;5053989;28;20023;-74
2023/03/04 03:17:48;;;;;;;;;;;5.90;99.90;;;;;;5069016;28;19924;-73
2023/03/04 03:20:14;;;;;;;;;;;5.90;99.90;;;;;;5051693;28;19927;-75
2023/03/04 03:22:40;;;;;;;;;;;5.90;99.90;;;;;;5049537;28;20334;-73
2023/03/04 03:25:06;;;;;;;;;;;5.90;99.90;;;;;;5071907;28;19939;-73
2023/03/04 03:27:31;;;;;;;;;;;5.90;99.90;;;;;;5054913;28;19927;-74
2023/03/04 03:29:57;;;;;;;;;;;5.90;99.90;;;;;;5071492;28;19920;-74
2023/03/04 03:32:22;;;;;;;;;;;5.90;99.90;;;;;;5073460;28;19924;-73
2023/03/04 03:34:48;;;;;;;;;;;5.90;99.90;;;;;;5071410;28;19928;-73
2023/03/04 03:37:14;;;;;;;;;;;5.90;99.90;;;;;;5071638;28;19921;-74
2023/03/04 03:39:39;;;;;;;;;;;5.90;99.90;;;;;;5072957;28;19955;-75
2023/03/04 03:42:05;;;;;;;;;;;5.90;99.90;;;;;;5070862;28;20375;-74
2023/03/04 03:44:30;;;;;;;;;;;5.90;99.90;;;;;;5055217;28;19942;-74
2023/03/04 03:46:56;;;;;;;;;;;5.90;99.90;;;;;;5072597;28;19926;-74
2023/03/04 03:49:21;;;;;;;;;;;5.90;99.90;;;;;;5051123;28;19970;-73
2023/03/04 03:51:47;;;;;;;;;;;5.90;99.90;;;;;;5051123;28;20427;-72
2023/03/04 03:54:13;;;;;;;;;;;5.90;99.90;;;;;;5052208;28;20011;-73
2023/03/04 03:56:38;;;;;;;;;;;5.90;99.90;;;;;;5052792;28;20364;-74
2023/03/04 03:59:04;;;;;;;;;;;5.90;99.90;;;;;;5053163;28;19928;-73
2023/03/04 04:01:29;;;;;;;;;;;5.90;99.90;;;;;;5052042;28;19960;-74
2023/03/04 04:03:57;;;;;;;;;;;5.90;99.90;;;;;;5057492;28;19921;-74
2023/03/04 04:06:23;;;;;;;;;;;5.90;99.90;;;;;;5061316;28;20386;-74
2023/03/04 04:08:49;;;;;;;;;;;5.90;99.90;;;;;;5065724;28;20016;-73
2023/03/04 04:11:14;;;;;;;;;;;5.80;99.90;;;;;;5053420;28;19929;-74
2023/03/04 04:13:40;;;;;;;;;;;5.80;99.90;;;;;;5052456;28;19927;-74
2023/03/04 04:16:05;;;;;;;;;;;5.80;99.90;;;;;;5050662;28;19928;-74
2023/03/04 04:18:31;;;;;;;;;;;5.90;99.90;;;;;;5052433;28;19974;-74
2023/03/04 04:20:57;;;;;;;;;;;5.90;99.90;;;;;;5052212;28;19921;-73
2023/03/04 04:23:22;;;;;;;;;;;5.90;99.90;;;;;;5053045;28;20402;-75
2023/03/04 04:25:48;;;;;;;;;;;5.90;99.90;;;;;;5053007;28;19931;-74
2023/03/04 04:28:13;;;;;;;;;;;5.90;99.90;;;;;;5050308;28;19948;-73
2023/03/04 04:30:39;;;;;;;;;;;6.00;99.90;;;;;;5053262;28;19927;-73
2023/03/04 04:33:05;;;;;;;;;;;6.00;99.90;;;;;;5061134;28;19921;-73
2023/03/04 04:35:31;;;;;;;;;;;5.90;99.90;;;;;;5063702;28;19947;-73
2023/03/04 04:37:57;;;;;;;;;;;5.90;99.90;;;;;;5062217;28;19924;-73
2023/03/04 04:40:23;;;;;;;;;;;5.90;99.90;;;;;;5070348;28;20407;-74
2023/03/04 04:42:48;;;;;;;;;;;5.90;99.90;;;;;;5051865;28;20417;-74
2023/03/04 04:45:14;;;;;;;;;;;5.90;99.90;;;;;;5061283;28;19947;-73
2023/03/04 04:47:39;;;;;;;;;;;5.80;99.90;;;;;;5051030;28;20015;-73
2023/03/04 04:50:05;;;;;;;;;;;5.90;99.90;;;;;;5051516;28;19943;-73
2023/03/04 04:52:31;;;;;;;;;;;5.80;99.90;;;;;;5051019;28;19920;-74
2023/03/04 04:55:00;;;;;;;;;;;5.90;99.90;;;;;;5052797;28;19967;-74
2023/03/04 04:57:25;;;;;;;;;;;5.90;99.90;;;;;;5052271;28;20070;-74
2023/03/04 04:59:51;;;;;;;;;;;5.90;99.90;;;;;;5050974;28;19960;-74
2023/03/04 05:02:16;;;;;;;;;;;5.90;99.90;;;;;;5051289;28;19929;-73
2023/03/04 05:04:42;;;;;;;;;;;5.90;99.90;;;;;;5049464;28;20415;-73
2023/03/04 05:07:08;;;;;;;;;;;5.90;99.90;;;;;;5051189;28;19959;-73
2023/03/04 05:09:33;;;;;;;;;;;5.80;99.90;;;;;;5049494;28;20015;-73
2023/03/04 05:11:59;;;;;;;;;;;5.70;99.90;;;;;;5050447;28;19935;-73
2023/03/04 05:14:24;;;;;;;;;;;5.70;99.90;;;;;;5051516;28;19968;-73
2023/03/04 05:16:51;;;;;;;;;;;5.60;99.90;;;;;;5051328;28;19920;-74
2023/03/04 05:19:17;;;;;;;;;;;5.60;99.90;;;;;;5049137;28;20295;-73
2023/03/04 05:21:43;;;;;;;;;;;5.60;99.90;;;;;;5049738;28;19928;-73
2023/03/04 05:24:09;;;;;;;;;;;5.60;99.90;;;;;;5051178;28;19980;-73
2023/03/04 05:26:35;;;;;;;;;;;5.60;99.90;;;;;;5049425;28;19928;-73
2023/03/04 05:29:00;;;;;;;;;;;5.60;99.90;;;;;;5051200;28;20387;-73
2023/03/04 05:31:26;;;;;;;;;;;5.60;99.90;;;;;;5052273;28;19921;-73
2023/03/04 05:33:51;;;;;;;;;;;5.70;99.90;;;;;;5062792;28;19928;-73
2023/03/04 05:36:17;;;;;;;;;;;5.70;99.90;;;;;;5060285;28;19979;-74
2023/03/04 05:38:42;;;;;;;;;;;5.60;99.90;;;;;;5053583;28;19932;-73
2023/03/04 05:41:08;;;;;;;;;;;5.60;99.90;;;;;;5051155;28;19924;-74
2023/03/04 05:43:34;;;;;;;;;;;5.70;99.90;;;;;;5048773;28;19925;-73
2023/03/04 05:46:01;;;;;;;;;;;5.70;99.90;;;;;;5050404;28;19967;-73
2023/03/04 05:48:30;;;;;;;;;;;5.70;99.90;;;;;;5050544;28;19927;-73
2023/03/04 05:50:56;;;;;;;;;;;5.70;99.90;;;;;;5052418;28;19920;-72
2023/03/04 05:53:22;;;;;;;;;;;5.70;99.90;;;;;;5072131;28;19934;-73
2023/03/04 05:55:48;;;;;;;;;;;5.70;99.90;;;;;;5070660;28;20011;-73
2023/03/04 05:58:14;;;;;;;;;;;5.70;99.90;;;;;;5069508;28;20024;-74
2023/03/04 06:00:40;;;;;;;;;;;5.60;99.90;;;;;;5070844;28;19962;-74
2023/03/04 06:03:05;;;;;;;;;;;5.70;99.90;;;;;;5069977;28;19924;-73
2023/03/04 06:05:31;;;;;;;;;;;5.70;99.90;;;;;;5069458;28;19924;-74
2023/03/04 06:07:56;;;;;;;;;;;5.70;99.90;;;;;;5069774;28;20018;-73
2023/03/04 06:10:22;;;;;;;;;;;5.70;99.90;;;;;;5070294;28;19920;-73
2023/03/04 06:12:48;;;;;;;;;;;5.70;99.90;;;;;;5069953;28;20016;-73
2023/03/04 06:15:13;;;;;;;;;;;5.80;99.90;;;;;;5069486;28;19924;-73
2023/03/04 06:17:40;;;;;;;;;;;5.80;99.90;;;;;;5069680;28;19928;-73
2023/03/04 06:20:06;;;;;;;;;;;5.70;99.90;;;;;;5070424;28;19928;-74
2023/03/04 06:22:32;;;;;;;;;;;5.80;99.90;;;;;;5069536;28;19926;-74
2023/03/04 06:25:00;;;;;;;;;;;5.70;99.90;;;;;;5070381;28;19967;-73
2023/03/04 06:27:26;;;;;;;;;;;5.80;99.90;;;;;;5049929;28;19928;-73
2023/03/04 06:29:52;;;;;;;;;;;5.70;99.90;;;;;;5069799;28;19920;-73
2023/03/04 06:32:17;;;;;;;;;;;5.70;99.90;;;;;;5068225;28;19921;-73
2023/03/04 06:34:43;;;;;;;;;;;5.70;99.90;;;;;;5069603;28;19924;-73
2023/03/04 06:37:09;;;;;;;;;;;5.80;99.90;;;;;;5051862;28;19936;-73
2023/03/04 06:39:34;;;;;;;;;;;5.70;99.90;;;;;;5069877;28;19928;-74
2023/03/04 06:42:00;;;;;;;;;;;5.70;99.90;;;;;;5049917;28;19924;-73
2023/03/04 06:44:25;;;;;;;;;;;5.60;99.90;;;;;;5070175;28;19927;-73
2023/03/04 06:46:51;;;;;;;;;;;5.70;99.90;;;;;;5069640;28;20429;-74
2023/03/04 06:49:17;;;;;;;;;;;5.80;99.90;;;;;;5069142;28;20452;-73
2023/03/04 06:51:42;;;;;;;;;;;5.70;99.90;;;;;;5050947;28;19927;-73
2023/03/04 06:54:08;;;;;;;;;;;5.70;99.90;;;;;;5050422;28;19925;-74
2023/03/04 06:56:34;;;;;;;;;;;5.70;99.90;;;;;;5069933;28;19977;-74
2023/03/04 06:58:59;;;;;;;;;;;5.70;99.90;;;;;;5077677;28;19920;-74
2023/03/04 07:01:26;;;;;;;;;;;5.60;99.90;;;;;;5078616;28;20375;-74
2023/03/04 07:03:52;;;;;;;;;;;5.80;99.90;;;;;;5083193;28;19928;-73
2023/03/04 07:06:20;;;;;;;;;;;5.70;99.90;;;;;;5060461;28;19920;-74
2023/03/04 07:08:46;;;;;;;;;;;5.80;99.90;;;;;;5054127;28;19920;-74
2023/03/04 07:11:11;;;;;;;;;;;5.80;99.90;;;;;;5055740;28;19920;-75
2023/03/04 07:13:37;;;;;;;;;;;5.80;99.90;;;;;;5055626;28;19924;-73
2023/03/04 07:16:04;;;;;;;;;;;5.90;99.90;;;;;;5053788;28;19924;-72
2023/03/04 07:18:29;;;;;;;;;;;5.80;99.90;;;;;;5072538;28;19921;-73
2023/03/04 07:20:55;;;;;;;;;;;5.90;99.90;;;;;;5073167;28;20298;-73
2023/03/04 07:23:20;;;;;;;;;;;6.00;99.90;;;;;;5055692;28;19935;-74
2023/03/04 07:25:47;;;;;;;;;;;5.90;99.90;;;;;;5054548;28;19935;-73
2023/03/04 07:28:13;;;;;;;;;;;5.90;99.90;;;;;;5073585;28;19924;-74
2023/03/04 07:30:38;;;;;;;;;;;6.00;99.90;;;;;;5073512;28;19924;-73
2023/03/04 07:33:04;;;;;;;;;;;6.00;99.90;;;;;;5072302;28;19920;-74
2023/03/04 07:35:29;;;;;;;;;;;6.10;99.90;;;;;;5072386;28;19927;-73
2023/03/04 07:37:55;;;;;;;;;;;6.20;99.90;;;;;;5073310;28;20394;-73
2023/03/04 07:40:21;;;;;;;;;;;6.10;99.90;;;;;;5072842;28;19939;-73
2023/03/04 07:42:50;;;;;;;;;;;6.10;99.90;;;;;;5071177;28;20058;-73
2023/03/04 07:45:15;;;;;;;;;;;6.10;99.90;;;;;;5072776;28;20023;-73
2023/03/04 07:47:41;;;;;;;;;;;6.20;99.90;;;;;;5072855;28;20007;-73
2023/03/04 07:50:07;;;;;;;;;;;6.20;99.90;;;;;;5072550;28;19969;-73
2023/03/04 07:52:36;;;;;;;;;;;6.10;99.90;;;;;;5071254;28;19971;-74
2023/03/04 07:55:02;;;;;;;;;;;6.10;99.90;;;;;;5073067;28;20003;-74
2023/03/04 07:57:28;;;;;;;;;;;6.20;99.90;;;;;;5072831;28;20344;-74
2023/03/04 07:59:55;;;;;;;;;;;6.10;99.90;;;;;;5071252;28;19924;-74
2023/03/04 08:02:21;;;;;;;;;;;6.20;99.90;;;;;;5075962;28;20371;-74
2023/03/04 08:04:48;;;;;;;;;;;6.20;99.90;;;;;;5076347;28;19962;-73
2023/03/04 08:07:13;;;;;;;;;;;6.20;99.90;;;;;;5068372;28;20388;-74
2023/03/04 08:09:39;;;;;;;;;;;6.30;99.90;;;;;;5072625;28;19920;-73
2023/03/04 08:12:04;;;;;;;;;;;6.50;99.90;;;;;;5053617;28;19928;-74
2023/03/04 08:14:32;;;;;;;;;;;6.50;99.90;;;;;;5053329;28;19982;-74
2023/03/04 08:16:58;;;;;;;;;;;6.60;99.90;;;;;;5072683;28;19920;-75
2023/03/04 08:19:24;;;;;;;;;;;6.60;99.90;;;;;;5054420;28;20023;-74
2023/03/04 08:21:49;;;;;;;;;;;6.60;99.90;;;;;;5071609;28;19928;-74
2023/03/04 08:24:15;;;;;;;;;;;6.60;99.90;;;;;;5072561;28;19935;-73
2023/03/04 08:26:42;;;;;;;;;;;6.70;99.90;;;;;;5071877;28;19924;-74
2023/03/04 08:29:08;;;;;;;;;;;6.70;99.90;;;;;;5073057;28;19960;-74
2023/03/04 08:31:34;;;;;;;;;;;6.70;99.90;;;;;;5080158;28;19931;-75
2023/03/04 08:34:01;;;;;;;;;;;6.70;99.90;;;;;;5081287;28;19924;-75
2023/03/04 08:36:26;;;;;;;;;;;6.60;99.90;;;;;;5055251;28;19943;-74
2023/03/04 08:38:52;;;;;;;;;;;6.70;99.90;;;;;;5053976;28;20427;-73
2023/03/04 08:41:18;;;;;;;;;;;6.70;99.90;;;;;;5071894;28;19920;-72
2023/03/04 08:43:43;;;;;;;;;;;6.70;99.90;;;;;;5071304;28;19924;-72
2023/03/04 08:46:09;;;;;;;;;;;6.70;99.90;;;;;;5071530;28;19920;-72
2023/03/04 08:48:36;;;;;;;;;;;6.80;99.90;;;;;;5071937;28;19924;-73
2023/03/04 08:51:05;;;;;;;;;;;6.70;99.90;;;;;;5072441;28;19955;-73
2023/03/04 08:53:31;;;;;;;;;;;6.80;99.90;;;;;;5071265;28;19935;-74
2023/03/04 08:55:56;;;;;;;;;;;6.80;99.90;;;;;;5070996;28;19920;-73
2023/03/04 08:58:22;;;;;;;;;;;6.80;99.90;;;;;;5054165;28;20011;-73
2023/03/04 09:00:48;;;;;;;;;;;6.80;99.90;;;;;;5072010;28;19955;-73
2023/03/04 09:03:14;;;;;;;;;;;6.80;99.90;;;;;;5070336;28;19925;-73
2023/03/04 09:05:40;;;;;;;;;;;6.80;99.90;;;;;;5071810;28;20387;-73
2023/03/04 09:08:06;;;;;;;;;;;6.80;99.90;;;;;;5069560;28;20399;-72
2023/03/04 09:10:32;;;;;;;;;;;6.80;99.90;;;;;;5070873;28;20375;-73
2023/03/04 09:12:58;;;;;;;;;;;6.80;99.90;;;;;;5052862;28;19928;-72
2023/03/04 09:15:23;;;;;;;;;;;6.80;99.90;;;;;;5071135;28;20003;-72
2023/03/04 09:17:49;;;;;;;;;;;6.80;99.90;;;;;;5070957;28;19920;-71
2023/03/04 09:20:18;;;;;;;;;;;6.80;99.90;;;;;;5071431;28;20025;-72
2023/03/04 09:22:44;;;;;;;;;;;6.80;99.90;;;;;;5070287;28;19986;-72
2023/03/04 09:25:10;;;;;;;;;;;6.90;99.90;;;;;;5052631;28;19960;-73
2023/03/04 09:27:36;;;;;;;;;;;7.00;99.90;;;;;;5071632;28;20023;-72
2023/03/04 09:30:03;;;;;;;;;;;7.00;99.90;;;;;;5053304;28;20014;-73
2023/03/04 09:32:29;;;;;;;;;;;7.00;99.90;;;;;;5070804;28;19924;-73
2023/03/04 09:34:54;;;;;;;;;;;6.90;99.90;;;;;;5070191;28;20324;-73
2023/03/04 09:37:20;;;;;;;;;;;7.00;99.90;;;;;;5071191;28;19951;-73
2023/03/04 09:39:45;;;;;;;;;;;7.00;99.90;;;;;;5071220;28;20015;-73
2023/03/04 09:42:16;;;;;;;;;;;7.00;99.90;;;;;;5069724;28;19931;-73
2023/03/04 09:44:45;;;;;;;;;;;7.00;99.90;;;;;;5070571;28;19924;-73
2023/03/04 09:47:16;;;;;;;;;;;7.00;99.90;;;;;;5070213;28;19975;-74
2023/03/04 09:49:44;;;;;;;;;;;7.00;99.90;;;;;;5070612;28;19920;-75
2023/03/04 09:52:13;;;;;;;;;;;7.00;99.90;;;;;;5069398;28;19935;-74
2023/03/04 09:54:53;;;;;;;;;;;7.10;99.90;;;;;;5072712;28;19928;-76
2023/03/04 09:57:37;;;;;;;;;;;7.10;99.90;;;;;;5077359;28;20061;-74
2023/03/04 10:00:04;;;;;;;;;;;7.10;99.90;;;;;;5063366;28;19929;-74
2023/03/04 10:02:49;;;;;;;;;;;7.10;99.90;;;;;;5068409;28;19952;-75
2023/03/04 10:05:18;;;;;;;;;;;7.20;99.90;;;;;;5056096;28;19924;-75
2023/03/04 10:07:47;;;;;;;;;;;7.30;99.90;;;;;;5052444;28;19932;-75
2023/03/04 10:10:15;;;;;;;;;;;7.30;99.90;;;;;;5052857;28;19931;-75
2023/03/04 10:12:42;;;;;;;;;;;7.30;99.90;;;;;;5052108;28;19920;-75
2023/03/04 10:15:10;;;;;;;;;;;7.30;99.90;;;;;;5071406;28;20380;-74
2023/03/04 10:17:37;;;;;;;;;;;7.20;99.90;;;;;;5069211;28;19935;-74
2023/03/04 10:20:05;;;;;;;;;;;7.10;99.90;;;;;;5071109;28;19924;-74
2023/03/04 10:22:38;;;;;;;;;;;7.20;99.90;;;;;;5077926;28;20278;-73
2023/03/04 10:25:25;;;;;;;;;;;7.20;99.90;;;;;;5074109;28;19927;-74
2023/03/04 10:27:54;;;;;;;;;;;7.30;99.90;;;;;;5066846;28;19912;-75
2023/03/04 10:30:38;;;;;;;;;;;7.40;99.90;;;;;;5063318;28;19934;-74
2023/03/04 10:33:10;;;;;;;;;;;7.50;99.90;;;;;;5072113;28;20334;-75
2023/03/04 10:35:37;;;;;;;;;;;7.40;99.90;;;;;;5078197;28;19955;-74
2023/03/04 10:38:03;;;;;;;;;;;7.40;99.90;;;;;;5079849;28;19921;-74
2023/03/04 10:40:35;;;;;;;;;;;7.50;99.90;;;;;;5077543;28;20033;-76
2023/03/04 10:43:06;;;;;;;;;;;7.70;99.90;;;;;;5073568;28;19927;-73
2023/03/04 10:45:35;;;;;;;;;;;7.90;99.90;;;;;;5071617;28;19932;-74
2023/03/04 10:48:01;;;;;;;;;;;7.90;99.90;;;;;;5074816;28;19917;-73
2023/03/04 10:50:31;;;;;;;;;;;7.80;99.90;;;;;;5054448;28;19944;-74
2023/03/04 10:52:57;;;;;;;;;;;7.70;99.90;;;;;;5074253;28;19964;-74
2023/03/04 10:55:23;;;;;;;;;;;7.70;99.90;;;;;;5056374;28;19920;-74
2023/03/04 10:57:50;;;;;;;;;;;7.70;99.90;;;;;;5056024;28;19927;-74
2023/03/04 11:00:16;;;;;;;;;;;7.80;99.90;;;;;;5056240;28;20022;-74
2023/03/04 11:02:42;;;;;;;;;;;7.90;99.90;;;;;;5055928;28;20046;-75
2023/03/04 11:05:13;;;;;;;;;;;8.00;99.90;;;;;;5055566;28;20053;-74
2023/03/04 11:07:49;;;;;;;;;;;8.10;99.90;;;;;;5054614;28;19920;-74
2023/03/04 11:10:21;;;;;;;;;;;8.20;99.90;;;;;;5072877;28;19920;-74
2023/03/04 11:13:10;;;;;;;;;;;8.20;99.90;;;;;;5073742;28;20018;-74
2023/03/04 11:15:49;;;;;;;;;;;8.10;99.90;;;;;;5059927;28;20310;-74
2023/03/04 11:18:15;;;;;;;;;;;8.10;99.90;;;;;;5073361;28;19920;-74
2023/03/04 11:20:47;;;;;;;;;;;8.00;99.90;;;;;;5074012;28;19977;-75
2023/03/04 11:23:17;;;;;;;;;;;7.90;99.90;;;;;;5055081;28;19921;-75
2023/03/04 11:25:47;;;;;;;;;;;7.80;99.90;;;;;;5055148;28;20394;-74
2023/03/04 11:28:17;;;;;;;;;;;7.80;99.90;;;;;;5079949;28;19920;-74
2023/03/04 11:30:49;;;;;;;;;;;7.80;99.90;;;;;;5063626;28;20014;-75
2023/03/04 11:33:18;;;;;;;;;;;7.80;99.90;;;;;;5058195;28;19928;-74
2023/03/04 11:35:49;;;;;;;;;;;7.90;99.90;;;;;;5073564;28;19930;-75
2023/03/04 11:38:19;;;;;;;;;;;8.00;99.90;;;;;;5072568;28;19928;-74
2023/03/04 11:40:45;;;;;;;;;;;8.20;99.90;;;;;;5054989;28;19921;-73
2023/03/04 11:43:30;;;;;;;;;;;8.30;99.90;;;;;;5073230;28;19931;-73
2023/03/04 11:45:55;;;;;;;;;;;8.30;99.90;;;;;;5072587;28;19920;-73
2023/03/04 11:48:30;;;;;;;;;;;8.20;99.90;;;;;;5070892;28;20333;-73
2023/03/04 11:51:07;;;;;;;;;;;8.20;99.90;;;;;;5072337;28;19920;-73
2023/03/04 11:53:49;;;;;;;;;;;8.20;99.90;;;;;;5072463;28;19927;-73
2023/03/04 11:56:34;;;;;;;;;;;8.20;99.90;;;;;;5072932;28;20418;-72
2023/03/04 11:59:15;;;;;;;;;;;8.20;99.90;;;;;;5071720;28;19920;-73
2023/03/04 12:01:47;;;;;;;;;;;8.30;99.90;;;;;;5053752;28;20038;-73
2023/03/04 12:04:31;;;;;;;;;;;8.30;99.90;;;;;;5072321;28;19997;-73
2023/03/04 12:07:12;;;;;;;;;;;8.30;99.90;;;;;;5071069;28;20386;-73
2023/03/04 12:10:00;;;;;;;;;;;8.30;99.90;;;;;;5051491;28;19960;-73
2023/03/04 12:12:55;;;;;;;;;;;8.20;99.90;;;;;;5070496;28;20393;-73
2023/03/04 12:15:37;;;;;;;;;;;8.20;99.90;;;;;;5049820;28;20387;-73
2023/03/04 12:18:09;;;;;;;;;;;8.30;99.90;;;;;;5071889;28;19920;-72
2023/03/04 12:20:39;;;;;;;;;;;8.30;99.90;;;;;;5071997;28;20441;-73
2023/03/04 12:23:43;;;;;;;;;;;8.30;99.90;;;;;;5071059;28;19926;-73
2023/03/04 12:26:18;;;;;;;;;;;8.30;99.90;;;;;;5009315;28;19921;-73
2023/03/04 12:29:02;;;;;;;;;;;8.20;99.90;;;;;;5009715;28;20015;-73
2023/03/04 12:31:41;;;;;;;;;;;8.10;99.90;;;;;;5049450;28;19936;-73
2023/03/04 12:34:06;;;;;;;;;;;8.10;99.90;;;;;;5051006;28;20303;-73
2023/03/04 12:36:41;;;;;;;;;;;8.10;99.90;;;;;;5054034;28;20047;-73
2023/03/04 12:39:25;;;;;;;;;;;8.10;99.90;;;;;;5070122;28;19920;-73
2023/03/04 12:41:57;;;;;;;;;;;8.10;99.90;;;;;;5071917;28;19962;-73
2023/03/04 12:44:22;;;;;;;;;;;8.20;99.90;;;;;;5071525;28;19921;-72
2023/03/04 12:47:10;;;;;;;;;;;8.20;99.90;;;;;;5070564;28;19974;-72
2023/03/04 12:49:58;;;;;;;;;;;8.20;99.90;;;;;;5051274;28;19998;-72
2023/03/04 12:52:40;;;;;;;;;;;8.30;99.90;;;;;;5053535;28;19921;-72
2023/03/04 12:55:11;;;;;;;;;;;8.30;99.90;;;;;;5056892;28;20465;-72
2023/03/04 12:57:37;;;;;;;;;;;8.40;99.90;;;;;;5081348;28;19924;-72
2023/03/04 13:00:11;;;;;;;;;;;8.40;99.90;;;;;;5083822;28;20019;-72
2023/03/04 13:02:49;;;;;;;;;;;8.50;99.90;;;;;;5072603;28;19925;-72
2023/03/04 13:05:33;;;;;;;;;;;8.40;99.90;;;;;;5071854;28;19935;-72
2023/03/04 13:08:10;;;;;;;;;;;8.20;99.90;;;;;;5070046;28;20002;-74
2023/03/04 13:10:36;;;;;;;;;;;8.30;99.90;;;;;;5050982;28;19943;-75
2023/03/04 13:13:02;;;;;;;;;;;8.50;99.90;;;;;;5070949;28;20295;-76
2023/03/04 13:15:29;;;;;;;;;;;8.70;99.90;;;;;;5053089;28;20307;-75
2023/03/04 13:18:00;;;;;;;;;;;8.80;99.90;;;;;;5069655;28;19923;-74
2023/03/04 13:20:28;;;;;;;;;;;8.80;99.90;;;;;;5053175;28;19934;-74
2023/03/04 13:23:03;;;;;;;;;;;8.80;99.90;;;;;;5052191;28;19925;-74
2023/03/04 13:25:43;;;;;;;;;;;8.70;99.90;;;;;;5070556;28;20395;-75
2023/03/04 13:28:08;;;;;;;;;;;8.60;99.90;;;;;;5054127;28;20390;-75
2023/03/04 13:30:34;;;;;;;;;;;8.50;99.90;;;;;;5070353;28;19925;-75
2023/03/04 13:33:12;;;;;;;;;;;8.40;99.90;;;;;;5071189;28;19930;-74
2023/03/04 13:35:48;;;;;;;;;;;8.50;99.90;;;;;;5051807;28;20521;-74
2023/03/04 13:38:19;;;;;;;;;;;8.40;99.90;;;;;;5070301;28;20491;-75
2023/03/04 13:41:05;;;;;;;;;;;8.30;99.90;;;;;;5052771;28;19927;-74
2023/03/04 13:43:50;;;;;;;;;;;8.20;99.90;;;;;;5051980;28;20011;-74
2023/03/04 13:46:19;;;;;;;;;;;8.20;99.90;;;;;;5070875;28;19967;-73
2023/03/04 13:48:50;;;;;;;;;;;8.10;99.90;;;;;;5070416;28;19924;-73
2023/03/04 13:51:17;;;;;;;;;;;8.10;99.90;;;;;;5068097;28;19920;-73
2023/03/04 13:53:45;;;;;;;;;;;7.90;99.90;;;;;;5069368;28;19917;-74
2023/03/04 13:56:17;;;;;;;;;;;7.90;99.90;;;;;;5070793;28;20634;-74
2023/03/04 13:58:43;;;;;;;;;;;7.90;99.90;;;;;;5068441;28;19982;-73
2023/03/04 14:01:23;;;;;;;;;;;7.90;99.90;;;;;;5053337;28;19924;-74
2023/03/04 14:03:49;;;;;;;;;;;7.90;99.90;;;;;;5071004;28;19962;-75
2023/03/04 14:06:18;;;;;;;;;;;7.90;99.90;;;;;;5052618;28;19924;-72
2023/03/04 14:08:46;;;;;;;;;;;8.00;99.90;;;;;;5068928;28;19931;-72
2023/03/04 14:11:23;;;;;;;;;;;8.20;99.90;;;;;;5028411;28;20014;-74
2023/03/04 14:13:49;;;;;;;;;;;8.40;99.90;;;;;;5052426;28;20372;-74
2023/03/04 14:16:22;;;;;;;;;;;8.50;99.90;;;;;;5051438;28;19924;-74
2023/03/04 14:19:01;;;;;;;;;;;8.50;99.90;;;;;;5069909;28;19971;-73
2023/03/04 14:21:30;;;;;;;;;;;8.40;99.90;;;;;;5070310;28;19927;-74
2023/03/04 14:24:00;;;;;;;;;;;8.50;99.90;;;;;;5053883;28;19920;-74
2023/03/04 14:26:26;;;;;;;;;;;8.50;99.90;;;;;;5074245;28;19920;-74
2023/03/04 14:28:55;;;;;;;;;;;8.50;99.90;;;;;;5079679;28;19928;-74
2023/03/04 14:31:23;;;;;;;;;;;8.40;99.90;;;;;;5071715;28;20403;-74
2023/03/04 14:33:58;;;;;;;;;;;8.20;99.90;;;;;;5051493;28;20401;-74
2023/03/04 14:36:25;;;;;;;;;;;8.20;99.90;;;;;;5070248;28;19920;-73
2023/03/04 14:38:57;;;;;;;;;;;8.10;99.90;;;;;;5070645;28;20342;-74